Tropical Cyclones
[Index]
Main Index Home Page Stock Weather Photos Extreme Storms Discussion Storm News and Storm Chasing Reports Tropical Cyclones / Hurricanes / Typhoons Weather Data and Links Wild Fires / Bushfires Weather Observation Techniques Weather Picture Catalogue Tornado Pictures and Reports Stock Video Footage and DVDs for sale
Season 2013-2014 Tropical Cyclone BRUCE Track Map
Season 2013-2014 Summaries: [BoM-AU] [JTWC-AU] [JTWC-SIO] [JTWC-SPAC] [JTWC-SH]
<<- Previous TC | JTWC 2013-2014 Season | Next TC ->>

click for intensity scale information  Lat/long Grid: Show Hide

 Date Labels: Show Hide

Joint Typhoon Warning Centre Cyclone Data

Name: BRUCE

16 Dec 2013 12:00 UTC to 25 Dec 2013 00:00 UTC

    date/time    lat    long     hPa   cat  kts
2013-12-16 12    8.1    98.1    1007         20          
2013-12-16 18    8.5    97.9    1007         20          
2013-12-17 00    8.7    97.7    1007         20          
2013-12-17 06    8.6    97.2    1004         25          
2013-12-17 12    9.1    97.1    1000         30          
2013-12-17 18    9.7    96.7     996         35          
2013-12-18 00   10.4    96.2     989    1    45          
2013-12-18 06   10.9    95.4     985    1    50          
2013-12-18 12   11.5    94.6     978    2    60          
2013-12-18 12   11.5    94.6     978    2    60          
2013-12-18 18   11.8    93.6     978    2    60          
2013-12-18 18   11.8    93.6     978    2    60          
2013-12-19 00   11.9    92.8     970    2    70          
2013-12-19 00   11.9    92.8     970    2    70          
2013-12-19 00   11.9    92.8     970    2    70          
2013-12-19 06   12.1    92.0     963    3    80          
2013-12-19 06   12.1    92.0     963    3    80          
2013-12-19 06   12.1    92.0     963    3    80          
2013-12-19 12   12.6    91.2     952    3    95          
2013-12-19 12   12.6    91.2     952    3    95          
2013-12-19 12   12.6    91.2     952    3    95          
2013-12-19 15   12.8    90.8     948    4   100          
2013-12-19 15   12.8    90.8     948    4   100          
2013-12-19 15   12.8    90.8     948    4   100          
2013-12-19 18   12.9    90.3     948    4   100          
2013-12-19 18   12.9    90.3     948    4   100          
2013-12-19 18   12.9    90.3     948    4   100          
2013-12-20 00   13.2    89.5     944    4   105          
2013-12-20 00   13.2    89.5     944    4   105          
2013-12-20 00   13.2    89.5     944    4   105          
2013-12-20 06   13.5    88.5     929    5   125          
2013-12-20 06   13.5    88.5     929    5   125          
2013-12-20 06   13.5    88.5     929    5   125          
2013-12-20 12   13.8    87.5     929    5   125          
2013-12-20 12   13.8    87.5     929    5   125          
2013-12-20 12   13.8    87.5     929    5   125          
2013-12-20 18   14.1    86.3     926    5   130          
2013-12-20 18   14.1    86.3     926    5   130          
2013-12-20 18   14.1    86.3     926    5   130          
2013-12-21 00   14.5    85.0     918    5   140          
2013-12-21 00   14.5    85.0     918    5   140          
2013-12-21 00   14.5    85.0     918    5   140          
2013-12-21 06   14.9    83.7     918    5   140          
2013-12-21 06   14.9    83.7     918    5   140          
2013-12-21 06   14.9    83.7     918    5   140          
2013-12-21 12   15.6    82.3     922    5   135          
2013-12-21 12   15.6    82.3     922    5   135          
2013-12-21 12   15.6    82.3     922    5   135          
2013-12-21 18   16.3    81.0     918    5   140          
2013-12-21 18   16.3    81.0     918    5   140          
2013-12-21 18   16.3    81.0     918    5   140          
2013-12-22 00   17.0    79.9     918    5   140          
2013-12-22 00   17.0    79.9     918    5   140          
2013-12-22 00   17.0    79.9     918    5   140          
2013-12-22 06   17.8    78.8     922    5   135          
2013-12-22 06   17.8    78.8     922    5   135          
2013-12-22 06   17.8    78.8     922    5   135          
2013-12-22 12   19.0    78.2     937    4   115          
2013-12-22 12   19.0    78.2     937    4   115          
2013-12-22 12   19.0    78.2     937    4   115          
2013-12-22 18   20.2    77.8     941    4   110          
2013-12-22 18   20.2    77.8     941    4   110          
2013-12-22 18   20.2    77.8     941    4   110          
2013-12-23 00   21.6    77.7     941    4   110          
2013-12-23 00   21.6    77.7     941    4   110          
2013-12-23 00   21.6    77.7     941    4   110          
2013-12-23 06   23.0    78.0     944    4   105          
2013-12-23 06   23.0    78.0     944    4   105          
2013-12-23 06   23.0    78.0     944    4   105          
2013-12-23 12   24.9    78.2     956    3    90          
2013-12-23 12   24.9    78.2     956    3    90          
2013-12-23 12   24.9    78.2     956    3    90          
2013-12-23 18   27.1    78.7     967    3    75          
2013-12-23 18   27.1    78.7     967    3    75          
2013-12-23 18   27.1    78.7     967    3    75          
2013-12-24 00   28.6    79.4     978    2    60          
2013-12-24 00   28.6    79.4     978    2    60          
2013-12-24 06   30.2    81.0     982    2    55          
2013-12-24 12   31.6    83.6     996         35          
2013-12-24 18   32.8    87.9     996         35          
2013-12-25 00   32.7    90.5    1004         25          
Winds are 1-min average.

Tropical cyclone tracks developed by Michael Bath using data from the Joint Typhoon Warning Centre Best Tracks and Google Maps.


[Australian Severe Weather index] [Copyright Notice] [Email Contacts] [Search This Site] [Privacy Policy]
Document: tropical_cyclone_bruce.htm Updated: 28 June 2017